Time;durP1;ratioP1;P1;durP2;ratioP2;P2;SDS_P1;SDS_P2;PMS_P1;PMS_P2;Temp;Humidity;BMP_temperature;BMP_pressure;BME280_temperature;BME280_humidity;BME280_pressure;Samples;Min_cycle;Max_cycle;Signal;HPM_P1;HPM_P2
2020/12/02 00:00:14;;;;;;;10.27;3.72;;;7.60;99.90;;;;;;4983642;28;20423;-66
2020/12/02 00:02:50;;;;;;;7.70;3.17;;;7.60;99.90;;;;;;4962901;28;20191;-66
2020/12/02 00:05:17;;;;;;;7.53;4.03;;;7.60;99.90;;;;;;4981703;28;20050;-70
2020/12/02 00:07:46;;;;;;;7.80;3.95;;;7.60;99.90;;;;;;4981865;28;20400;-66
2020/12/02 00:10:11;;;;;;;8.40;3.67;;;7.60;99.90;;;;;;4984731;28;20030;-69
2020/12/02 00:12:37;;;;;;;7.03;3.70;;;7.60;99.90;;;;;;4982270;28;20049;-66
2020/12/02 00:15:05;;;;;;;8.73;3.88;;;7.60;99.90;;;;;;4983405;28;20096;-66
2020/12/02 00:17:31;;;;;;;7.28;3.40;;;7.60;99.90;;;;;;4984786;28;20085;-66
2020/12/02 00:19:56;;;;;;;7.80;3.40;;;7.60;99.90;;;;;;4982358;28;20050;-66
2020/12/02 00:22:23;;;;;;;12.40;4.40;;;7.60;99.90;;;;;;4981079;28;20042;-68
2020/12/02 00:24:50;;;;;;;8.82;3.83;;;7.60;99.90;;;;;;4983951;28;20100;-66
2020/12/02 00:27:22;;;;;;;7.07;3.58;;;7.50;99.90;;;;;;4967997;28;20074;-67
2020/12/02 00:29:48;;;;;;;10.02;3.75;;;7.60;99.90;;;;;;4984115;28;20040;-67
2020/12/02 00:32:36;;;;;;;8.90;3.78;;;7.50;99.90;;;;;;4980573;28;20280;-66
2020/12/02 00:35:04;;;;;;;11.90;4.13;;;7.50;99.90;;;;;;4983037;28;20377;-66
2020/12/02 00:37:30;;;;;;;8.25;4.03;;;7.60;99.90;;;;;;4980402;28;20130;-66
2020/12/02 00:39:56;;;;;;;11.93;3.78;;;7.50;99.90;;;;;;4983447;28;20117;-67
2020/12/02 00:42:23;;;;;;;7.85;3.85;;;7.50;99.90;;;;;;4963257;28;20411;-66
2020/12/02 00:44:49;;;;;;;10.13;4.22;;;7.50;99.90;;;;;;4967745;28;20034;-68
2020/12/02 00:47:20;;;;;;;8.13;3.47;;;7.50;99.90;;;;;;4966239;28;20042;-67
2020/12/02 00:49:50;;;;;;;6.93;3.28;;;7.50;99.90;;;;;;4984597;28;20054;-67
2020/12/02 00:52:16;;;;;;;7.97;4.03;;;7.50;99.90;;;;;;4980304;28;20034;-67
2020/12/02 00:54:43;;;;;;;7.47;3.85;;;7.60;99.90;;;;;;4979911;28;20040;-67
2020/12/02 00:57:10;;;;;;;8.73;4.40;;;7.50;99.90;;;;;;4982715;28;20391;-66
2020/12/02 00:59:39;;;;;;;8.40;4.20;;;7.50;99.90;;;;;;4980292;28;21126;-66
2020/12/02 01:02:15;;;;;;;9.95;4.18;;;7.50;99.90;;;;;;4980858;28;20483;-66
2020/12/02 01:04:44;;;;;;;10.50;4.28;;;7.50;99.90;;;;;;4995338;28;20085;-66
2020/12/02 01:07:11;;;;;;;8.43;4.05;;;7.50;99.90;;;;;;4959626;28;20037;-66
2020/12/02 01:09:37;;;;;;;8.68;4.10;;;7.50;99.90;;;;;;4979712;28;20039;-67
2020/12/02 01:12:03;;;;;;;15.95;4.28;;;7.50;99.90;;;;;;4960049;28;20400;-67
2020/12/02 01:14:30;;;;;;;9.40;4.30;;;7.50;99.90;;;;;;4978369;28;20503;-67
2020/12/02 01:16:59;;;;;;;9.80;4.22;;;7.50;99.90;;;;;;4963275;28;20071;-66
2020/12/02 01:19:33;;;;;;;9.43;3.72;;;7.40;99.90;;;;;;4978460;28;20042;-67
2020/12/02 01:22:20;;;;;;;9.13;4.70;;;7.40;99.90;;;;;;4960483;28;20031;-66
2020/12/02 01:25:01;;;;;;;9.32;3.83;;;7.50;99.90;;;;;;4959495;28;20117;-68
2020/12/02 01:27:36;;;;;;;10.35;4.10;;;7.40;99.90;;;;;;4960665;28;20045;-66
2020/12/02 01:30:08;;;;;;;10.70;4.72;;;7.40;99.90;;;;;;4979244;28;20499;-66
2020/12/02 01:32:35;;;;;;;10.05;3.95;;;7.50;99.90;;;;;;4959562;28;20045;-68
2020/12/02 01:35:00;;;;;;;9.38;4.30;;;7.40;99.90;;;;;;4979195;28;20450;-67
2020/12/02 01:37:26;;;;;;;9.23;3.88;;;7.40;99.90;;;;;;4961392;28;20054;-66
2020/12/02 01:40:20;;;;;;;9.20;3.78;;;7.40;99.90;;;;;;4981124;28;20035;-66
2020/12/02 01:42:51;;;;;;;7.65;4.13;;;7.50;99.90;;;;;;4979386;28;20038;-66
2020/12/02 01:45:28;;;;;;;9.32;4.43;;;7.40;99.90;;;;;;4983187;28;20038;-66
2020/12/02 01:48:09;;;;;;;10.48;4.72;;;7.40;99.90;;;;;;4981828;28;20038;-65
2020/12/02 01:50:53;;;;;;;16.67;5.22;;;7.40;99.90;;;;;;4982725;28;20038;-68
2020/12/02 01:53:34;;;;;;;13.48;4.38;;;7.40;99.90;;;;;;4980678;28;20034;-66
2020/12/02 01:56:02;;;;;;;10.50;4.22;;;7.40;99.90;;;;;;4980960;28;20087;-66
2020/12/02 01:59:02;;;;;;;13.68;5.00;;;7.40;99.90;;;;;;4981671;28;20773;-66
2020/12/02 02:01:51;;;;;;;8.90;4.05;;;7.30;99.90;;;;;;4994783;28;20374;-67
2020/12/02 02:04:21;;;;;;;10.80;4.60;;;7.30;99.90;;;;;;4977832;28;20057;-66
2020/12/02 02:07:07;;;;;;;9.77;4.60;;;7.30;99.90;;;;;;4980450;28;20042;-66
2020/12/02 02:09:33;;;;;;;10.27;4.80;;;7.30;99.90;;;;;;4980288;28;20035;-67
2020/12/02 02:12:25;;;;;;;8.82;4.18;;;7.30;99.90;;;;;;4981377;28;20034;-66
2020/12/02 02:15:28;;;;;;;11.55;5.28;;;7.40;99.90;;;;;;4973433;28;20060;-66
2020/12/02 02:17:58;;;;;;;18.02;5.55;;;7.30;99.90;;;;;;4993886;28;20046;-67
2020/12/02 02:20:30;;;;;;;10.05;4.85;;;7.30;99.90;;;;;;4963876;28;20130;-66
2020/12/02 02:22:55;;;;;;;11.20;5.10;;;7.30;99.90;;;;;;4963040;28;20058;-67
2020/12/02 02:25:21;;;;;;;9.88;5.10;;;7.30;99.90;;;;;;4980810;28;20118;-66
2020/12/02 02:27:48;;;;;;;11.40;5.35;;;7.30;99.90;;;;;;4981653;28;20049;-66
2020/12/02 02:30:15;;;;;;;12.13;4.95;;;7.30;99.90;;;;;;4979785;28;20045;-67
2020/12/02 02:32:41;;;;;;;11.25;4.82;;;7.30;99.90;;;;;;4982398;28;20046;-68
2020/12/02 02:35:07;;;;;;;12.73;5.15;;;7.30;99.90;;;;;;4979119;28;20054;-68
2020/12/02 02:37:33;;;;;;;10.85;5.00;;;7.30;99.90;;;;;;4982258;28;20448;-66
2020/12/02 02:40:01;;;;;;;9.32;4.63;;;7.30;99.90;;;;;;4979431;28;20042;-67
2020/12/02 02:42:29;;;;;;;11.45;4.28;;;7.30;99.90;;;;;;4981018;28;20038;-66
2020/12/02 02:44:55;;;;;;;10.82;4.30;;;7.30;99.90;;;;;;4979801;28;20034;-66
2020/12/02 02:47:21;;;;;;;21.90;6.07;;;7.30;99.90;;;;;;4981969;28;20035;-67
2020/12/02 02:49:47;;;;;;;11.23;4.30;;;7.30;99.90;;;;;;4980615;28;20030;-67
2020/12/02 02:52:12;;;;;;;8.82;4.47;;;7.30;99.90;;;;;;4979228;28;20078;-66
2020/12/02 02:54:38;;;;;;;8.70;3.97;;;7.30;99.90;;;;;;4982008;28;20046;-66
2020/12/02 02:57:04;;;;;;;11.10;4.72;;;7.40;99.90;;;;;;4978751;28;20035;-66
2020/12/02 02:59:30;;;;;;;8.63;4.03;;;7.30;99.90;;;;;;4981390;28;20061;-67
2020/12/02 03:01:56;;;;;;;10.45;5.32;;;7.30;99.90;;;;;;4979670;28;20030;-66
2020/12/02 03:04:22;;;;;;;16.98;5.40;;;7.30;99.90;;;;;;4963111;28;20035;-66
2020/12/02 03:06:48;;;;;;;10.63;4.65;;;7.30;99.90;;;;;;4963568;28;20042;-67
2020/12/02 03:09:13;;;;;;;11.40;4.57;;;7.30;99.90;;;;;;4962182;28;20441;-66
2020/12/02 03:11:40;;;;;;;11.88;4.78;;;7.30;99.90;;;;;;4982154;28;20514;-67
2020/12/02 03:14:06;;;;;;;18.88;5.70;;;7.30;99.90;;;;;;4978597;28;20403;-66
2020/12/02 03:16:50;;;;;;;11.32;4.95;;;7.30;99.90;;;;;;4982962;28;20037;-66
2020/12/02 03:19:31;;;;;;;10.05;4.55;;;7.20;99.90;;;;;;4993699;28;20125;-66
2020/12/02 03:22:03;;;;;;;7.88;3.78;;;7.30;99.90;;;;;;4980875;28;20035;-68
2020/12/02 03:24:29;;;;;;;10.25;4.93;;;7.20;99.90;;;;;;4979286;28;20046;-68
2020/12/02 03:26:55;;;;;;;10.73;4.45;;;7.20;99.90;;;;;;4981305;28;20031;-69
2020/12/02 03:29:23;;;;;;;12.90;4.55;;;7.30;99.90;;;;;;4981796;28;20034;-67
2020/12/02 03:31:49;;;;;;;12.18;4.13;;;7.30;99.90;;;;;;4983067;28;20042;-68
2020/12/02 03:34:17;;;;;;;10.15;5.18;;;7.30;99.90;;;;;;4980421;28;20046;-66
2020/12/02 03:36:43;;;;;;;12.20;4.32;;;7.30;99.90;;;;;;4978574;28;20038;-67
2020/12/02 03:39:10;;;;;;;13.65;5.15;;;7.30;99.90;;;;;;4980960;28;20034;-67
2020/12/02 03:41:38;;;;;;;12.43;5.40;;;7.30;99.90;;;;;;4977973;28;20058;-67
2020/12/02 03:44:03;;;;;;;12.93;5.40;;;7.30;99.90;;;;;;4981068;28;20539;-66
2020/12/02 03:46:29;;;;;;;9.55;4.57;;;7.30;99.90;;;;;;4980857;28;20042;-69
2020/12/02 03:48:54;;;;;;;10.00;4.82;;;7.20;99.90;;;;;;4978835;28;20484;-66
2020/12/02 03:51:20;;;;;;;10.60;4.97;;;7.20;99.90;;;;;;4979187;28;20042;-66
2020/12/02 03:53:46;;;;;;;11.77;5.47;;;7.20;99.90;;;;;;4962378;28;20035;-67
2020/12/02 03:56:11;;;;;;;10.13;5.10;;;7.20;99.90;;;;;;4977907;28;20114;-65
2020/12/02 03:58:37;;;;;;;11.85;5.13;;;7.20;99.90;;;;;;4963632;28;20035;-66
2020/12/02 04:01:03;;;;;;;16.45;5.57;;;7.20;99.90;;;;;;4976741;28;20114;-68
2020/12/02 04:03:29;;;;;;;13.05;5.53;;;7.10;99.90;;;;;;4980639;28;20030;-67
2020/12/02 04:05:54;;;;;;;13.35;5.65;;;7.10;99.90;;;;;;4978584;28;20030;-67
2020/12/02 04:08:20;;;;;;;13.80;5.07;;;7.20;99.90;;;;;;4979128;28;20133;-67
2020/12/02 04:10:46;;;;;;;11.85;5.38;;;7.20;99.90;;;;;;4979869;28;20022;-66
2020/12/02 04:13:12;;;;;;;11.85;4.88;;;7.20;99.90;;;;;;4960420;28;20480;-68
2020/12/02 04:15:37;;;;;;;16.20;5.45;;;7.20;99.90;;;;;;4980604;28;20045;-67
2020/12/02 04:18:03;;;;;;;11.05;5.68;;;7.20;99.90;;;;;;4977001;28;20085;-66
2020/12/02 04:20:29;;;;;;;10.23;4.70;;;7.20;99.90;;;;;;4980698;28;20034;-67
2020/12/02 04:22:55;;;;;;;14.50;5.82;;;7.20;99.90;;;;;;4978198;28;20396;-67
2020/12/02 04:25:24;;;;;;;14.02;5.75;;;7.20;99.90;;;;;;4979384;28;20034;-66
2020/12/02 04:27:50;;;;;;;14.25;5.47;;;7.20;99.90;;;;;;4961133;28;20414;-66
2020/12/02 04:30:16;;;;;;;14.05;5.60;;;7.10;99.90;;;;;;4979209;28;20304;-67
2020/12/02 04:32:42;;;;;;;14.43;5.97;;;7.10;99.90;;;;;;4962578;28;20049;-66
2020/12/02 04:35:08;;;;;;;14.48;5.68;;;7.20;99.90;;;;;;4959650;28;20042;-66
2020/12/02 04:37:35;;;;;;;11.27;5.20;;;7.20;99.90;;;;;;4980573;28;20034;-66
2020/12/02 04:40:02;;;;;;;13.23;5.75;;;7.10;99.90;;;;;;4960319;28;20535;-66
2020/12/02 04:42:30;;;;;;;10.68;5.78;;;7.20;99.90;;;;;;4962596;28;20031;-66
2020/12/02 04:44:57;;;;;;;15.40;5.93;;;7.10;99.90;;;;;;4977869;28;20534;-66
2020/12/02 04:47:38;;;;;;;18.15;6.30;;;7.10;99.90;;;;;;4983297;28;20046;-65
2020/12/02 04:50:20;;;;;;;13.93;5.80;;;7.10;99.90;;;;;;4977607;28;20121;-66
2020/12/02 04:53:04;;;;;;;13.68;5.88;;;7.10;99.90;;;;;;4978829;28;20058;-66
2020/12/02 04:55:30;;;;;;;15.23;5.65;;;7.00;99.90;;;;;;4980774;28;20129;-67
2020/12/02 04:57:55;;;;;;;16.42;6.20;;;7.10;99.90;;;;;;4977372;28;20117;-67
2020/12/02 05:00:30;;;;;;;13.80;5.97;;;7.00;99.90;;;;;;4979507;28;20039;-66
2020/12/02 05:03:08;;;;;;;15.02;5.93;;;7.10;99.90;;;;;;4962668;28;20487;-67
2020/12/02 05:05:33;;;;;;;14.57;5.80;;;7.10;99.90;;;;;;4991463;28;20030;-65
2020/12/02 05:08:28;;;;;;;19.17;6.18;;;7.10;99.90;;;;;;4959713;28;20034;-66
2020/12/02 05:10:56;;;;;;;12.95;5.75;;;7.10;99.90;;;;;;4959369;28;20035;-65
2020/12/02 05:13:23;;;;;;;18.00;7.05;;;7.10;99.90;;;;;;4983314;28;21656;-66
2020/12/02 05:16:02;;;;;;;16.00;7.32;;;7.10;99.90;;;;;;4965668;28;20491;-66
2020/12/02 05:18:28;;;;;;;16.63;6.30;;;7.00;99.90;;;;;;4980542;28;20552;-66
2020/12/02 05:21:04;;;;;;;14.65;6.43;;;7.00;99.90;;;;;;4982752;28;20118;-66
2020/12/02 05:23:30;;;;;;;14.32;5.75;;;7.00;99.90;;;;;;4983978;28;20038;-65
2020/12/02 05:25:56;;;;;;;14.45;6.50;;;7.10;99.90;;;;;;4980274;28;21232;-66
2020/12/02 05:28:38;;;;;;;14.98;6.10;;;7.00;99.90;;;;;;4983251;28;20034;-66
2020/12/02 05:31:19;;;;;;;15.45;7.57;;;7.00;99.90;;;;;;4962437;28;20038;-68
2020/12/02 05:33:46;;;;;;;19.10;6.78;;;7.10;99.90;;;;;;4993051;28;20034;-67
2020/12/02 05:36:29;;;;;;;12.82;5.72;;;7.00;99.90;;;;;;4982395;28;20118;-68
2020/12/02 05:39:19;;;;;;;18.42;6.30;;;7.00;99.90;;;;;;4977041;28;20376;-66
2020/12/02 05:41:50;;;;;;;14.18;5.65;;;6.90;99.90;;;;;;4964530;28;20037;-66
2020/12/02 05:44:41;;;;;;;14.43;7.00;;;6.90;99.90;;;;;;4996788;28;20034;-68
2020/12/02 05:47:12;;;;;;;17.38;7.28;;;6.90;99.90;;;;;;4983416;28;20034;-66
2020/12/02 05:49:43;;;;;;;12.52;6.63;;;6.90;99.90;;;;;;4981386;28;20027;-66
2020/12/02 05:52:25;;;;;;;15.02;6.82;;;6.90;99.90;;;;;;4992219;28;20042;-66
2020/12/02 05:54:58;;;;;;;18.23;7.25;;;6.90;99.90;;;;;;4990085;28;20041;-67
2020/12/02 05:57:23;;;;;;;18.00;6.75;;;6.90;99.90;;;;;;4984207;28;20031;-66
2020/12/02 05:59:55;;;;;;;15.20;6.78;;;6.90;99.90;;;;;;4964388;28;20043;-67
2020/12/02 06:02:21;;;;;;;15.90;6.30;;;6.90;99.90;;;;;;4986722;28;20738;-65
2020/12/02 06:04:52;;;;;;;15.68;6.05;;;6.90;99.90;;;;;;4964661;28;20042;-66
2020/12/02 06:07:18;;;;;;;13.77;6.38;;;6.90;99.90;;;;;;4986908;28;20073;-66
2020/12/02 06:09:49;;;;;;;14.43;6.40;;;6.90;99.90;;;;;;4970536;28;20029;-66
2020/12/02 06:12:22;;;;;;;17.38;6.40;;;6.90;99.90;;;;;;4981542;28;20030;-66
2020/12/02 06:14:50;;;;;;;22.73;6.80;;;6.90;99.90;;;;;;4992005;28;20077;-66
2020/12/02 06:17:30;;;;;;;15.93;6.50;;;6.90;99.90;;;;;;4985141;28;20443;-67
2020/12/02 06:19:56;;;;;;;17.67;7.40;;;6.90;99.90;;;;;;4989831;28;20125;-68
2020/12/02 06:22:49;;;;;;;15.30;6.55;;;7.00;99.90;;;;;;4988966;28;20114;-66
2020/12/02 06:25:47;;;;;;;12.90;5.82;;;6.90;99.90;;;;;;4985418;28;20125;-66
2020/12/02 06:28:28;;;;;;;16.70;6.00;;;7.00;99.90;;;;;;4991572;28;20563;-67
2020/12/02 06:31:01;;;;;;;13.27;6.57;;;6.90;99.90;;;;;;4998126;28;20491;-66
2020/12/02 06:33:31;;;;;;;14.18;6.15;;;6.90;99.90;;;;;;4991586;28;20128;-67
2020/12/02 06:36:09;;;;;;;16.63;6.78;;;6.90;99.90;;;;;;4986289;28;20043;-68
2020/12/02 06:38:35;;;;;;;18.80;6.47;;;6.90;99.90;;;;;;4987234;28;20027;-66
2020/12/02 06:41:00;;;;;;;14.20;6.45;;;6.90;99.90;;;;;;4984618;28;20031;-67
2020/12/02 06:43:43;;;;;;;14.77;6.57;;;6.90;99.90;;;;;;4991078;28;20048;-66
2020/12/02 06:46:12;;;;;;;12.85;6.28;;;6.90;99.90;;;;;;4981893;28;20030;-66
2020/12/02 06:48:39;;;;;;;16.65;7.55;;;6.90;99.90;;;;;;4968801;28;20038;-67
2020/12/02 06:51:14;;;;;;;13.15;6.00;;;6.90;99.90;;;;;;4989295;28;20033;-66
2020/12/02 06:53:39;;;;;;;18.90;6.50;;;6.90;99.90;;;;;;4969432;28;20030;-65
2020/12/02 06:56:06;;;;;;;16.23;7.13;;;6.90;99.90;;;;;;4987066;28;20022;-65
2020/12/02 06:58:32;;;;;;;12.20;5.70;;;6.90;99.90;;;;;;4984235;28;20049;-67
2020/12/02 07:01:01;;;;;;;21.42;7.60;;;6.90;99.90;;;;;;4989001;28;20037;-67
2020/12/02 07:03:39;;;;;;;16.55;6.72;;;6.80;99.90;;;;;;4987942;28;20038;-69
2020/12/02 07:06:25;;;;;;;18.17;6.75;;;6.80;99.90;;;;;;4988366;28;20029;-66
2020/12/02 07:09:11;;;;;;;14.93;6.40;;;6.90;99.90;;;;;;4971991;28;20031;-66
2020/12/02 07:11:40;;;;;;;15.70;6.82;;;6.90;99.90;;;;;;4981617;28;20041;-66
2020/12/02 07:14:37;;;;;;;16.80;7.55;;;6.90;99.90;;;;;;4994187;28;20054;-67
2020/12/02 07:17:07;;;;;;;16.13;6.00;;;6.90;99.90;;;;;;4972663;28;20045;-67
2020/12/02 07:19:37;;;;;;;18.48;7.03;;;6.90;99.90;;;;;;4984511;28;20034;-66
2020/12/02 07:22:24;;;;;;;15.55;6.72;;;6.90;99.90;;;;;;4970491;28;20041;-66
2020/12/02 07:24:52;;;;;;;16.27;7.40;;;6.90;99.90;;;;;;4984837;28;20499;-66
2020/12/02 07:27:20;;;;;;;19.63;7.45;;;6.90;99.90;;;;;;4982202;28;20038;-66
2020/12/02 07:29:46;;;;;;;17.55;7.15;;;7.00;99.90;;;;;;4987798;28;20384;-66
2020/12/02 07:32:18;;;;;;;16.52;6.85;;;6.90;99.90;;;;;;4985675;28;20038;-66
2020/12/02 07:34:45;;;;;;;17.92;6.32;;;6.90;99.90;;;;;;4990429;28;20042;-67
2020/12/02 07:37:19;;;;;;;15.13;6.30;;;6.90;99.90;;;;;;4983706;28;20499;-66
2020/12/02 07:39:50;;;;;;;16.42;7.10;;;6.90;99.90;;;;;;4988115;28;20038;-66
2020/12/02 07:42:23;;;;;;;14.30;6.32;;;6.90;99.90;;;;;;4984182;28;20038;-66
2020/12/02 07:45:19;;;;;;;16.88;7.57;;;6.90;99.90;;;;;;4984076;28;20030;-66
2020/12/02 07:47:51;;;;;;;14.75;6.47;;;6.90;99.90;;;;;;4978643;28;20031;-66
2020/12/02 07:50:27;;;;;;;17.23;6.97;;;6.90;99.90;;;;;;4984540;28;20123;-66
2020/12/02 07:53:15;;;;;;;19.48;6.70;;;6.90;99.90;;;;;;4989028;28;20038;-68
2020/12/02 07:55:47;;;;;;;21.20;7.00;;;6.90;99.90;;;;;;4939947;28;20100;-67
2020/12/02 07:58:27;;;;;;;16.25;7.03;;;6.90;99.90;;;;;;4966398;28;20043;-66
2020/12/02 08:00:55;;;;;;;16.95;6.70;;;6.90;99.90;;;;;;4971136;28;20068;-68
2020/12/02 08:03:51;;;;;;;18.45;6.75;;;6.90;99.90;;;;;;4988009;28;20042;-67
2020/12/02 08:06:33;;;;;;;17.27;6.78;;;6.90;99.90;;;;;;4979639;28;20034;-66
2020/12/02 08:08:58;;;;;;;17.67;7.32;;;7.00;99.90;;;;;;4984352;28;20026;-67
2020/12/02 08:11:24;;;;;;;19.10;7.38;;;7.00;99.90;;;;;;4995718;28;20125;-66
2020/12/02 08:13:55;;;;;;;19.42;7.70;;;7.00;99.90;;;;;;4991430;28;20064;-66
2020/12/02 08:16:42;;;;;;;16.13;6.97;;;7.00;99.90;;;;;;4983720;28;20051;-66
2020/12/02 08:19:11;;;;;;;14.15;6.40;;;7.00;99.90;;;;;;4991904;28;20034;-68
2020/12/02 08:21:39;;;;;;;19.02;7.25;;;7.00;99.90;;;;;;4986733;28;20037;-66
2020/12/02 08:24:19;;;;;;;15.48;7.00;;;7.00;99.90;;;;;;4982988;28;20438;-67
2020/12/02 08:26:46;;;;;;;;;;;7.00;99.90;;;;;;4985851;28;20026;-66
2020/12/02 08:29:11;;;;;;;20.73;7.22;;;7.00;99.90;;;;;;4984283;28;19914;-66
2020/12/02 08:31:38;;;;;;;14.02;6.88;;;7.00;99.90;;;;;;4986464;28;20557;-67
2020/12/02 08:34:17;;;;;;;15.35;6.25;;;7.00;99.90;;;;;;4982695;28;20026;-66
2020/12/02 08:37:16;;;;;;;22.55;7.13;;;7.00;99.90;;;;;;4967521;28;20038;-67
2020/12/02 08:39:47;;;;;;;18.60;7.75;;;7.00;99.90;;;;;;4977939;28;20038;-66
2020/12/02 08:42:24;;;;;;;17.85;6.38;;;7.00;99.90;;;;;;4983970;28;20039;-67
2020/12/02 08:45:14;;;;;;;18.63;7.38;;;7.10;99.90;;;;;;4982593;28;20026;-66
2020/12/02 08:47:41;;;;;;;16.30;6.97;;;7.10;99.90;;;;;;4987187;28;20505;-66
2020/12/02 08:50:19;;;;;;;18.08;7.47;;;7.10;99.90;;;;;;4987052;28;20373;-66
2020/12/02 08:52:51;;;;;;;22.67;7.40;;;7.10;99.90;;;;;;4970676;28;20033;-67
2020/12/02 08:55:16;;;;;;;17.20;6.95;;;7.00;99.90;;;;;;4989173;28;20047;-66
2020/12/02 08:57:42;;;;;;;16.30;7.32;;;7.10;99.90;;;;;;4994672;28;20037;-66
2020/12/02 09:00:08;;;;;;;15.77;6.50;;;7.10;99.90;;;;;;4989850;28;20097;-67
2020/12/02 09:02:34;;;;;;;16.92;6.72;;;7.10;99.90;;;;;;4982582;28;20041;-67
2020/12/02 09:04:59;;;;;;;18.85;6.72;;;7.10;99.90;;;;;;4995313;28;20399;-66
2020/12/02 09:07:25;;;;;;;19.60;8.10;;;7.10;99.90;;;;;;4993098;28;20473;-66
2020/12/02 09:09:50;;;;;;;15.65;6.32;;;7.10;99.90;;;;;;4990743;28;20578;-67
2020/12/02 09:12:16;;;;;;;18.05;7.35;;;7.10;99.90;;;;;;4992165;28;20507;-65
2020/12/02 09:14:41;;;;;;;17.65;7.07;;;7.20;99.90;;;;;;4991780;28;20037;-67
2020/12/02 09:17:08;;;;;;;16.58;6.25;;;7.20;99.90;;;;;;4991378;28;20558;-66
2020/12/02 09:19:33;;;;;;;15.75;6.15;;;7.20;99.90;;;;;;4991723;28;20488;-68
2020/12/02 09:21:59;;;;;;;18.67;7.05;;;7.10;99.90;;;;;;4977139;28;20042;-66
2020/12/02 09:24:24;;;;;;;14.45;6.80;;;7.20;99.90;;;;;;4991116;28;20037;-66
2020/12/02 09:26:50;;;;;;;15.23;6.50;;;7.10;99.90;;;;;;4991022;28;20069;-67
2020/12/02 09:29:15;;;;;;;15.23;7.43;;;7.20;99.90;;;;;;4990639;28;20022;-66
2020/12/02 09:31:42;;;;;;;18.48;7.65;;;7.20;99.90;;;;;;4991590;28;20114;-65
2020/12/02 09:34:09;;;;;;;18.85;7.32;;;7.20;99.90;;;;;;4991204;28;20466;-66
2020/12/02 09:36:35;;;;;;;15.05;6.63;;;7.20;99.90;;;;;;4990963;28;20042;-66
2020/12/02 09:39:01;;;;;;;15.85;7.60;;;7.20;99.90;;;;;;4991319;28;20033;-65
2020/12/02 09:41:39;;;;;;;13.82;5.75;;;7.20;99.90;;;;;;4991304;28;20054;-65
2020/12/02 09:44:08;;;;;;;21.30;6.93;;;7.10;99.90;;;;;;4989927;28;20041;-66
2020/12/02 09:46:35;;;;;;;13.88;6.57;;;7.20;99.90;;;;;;4992404;28;20046;-68
2020/12/02 09:49:01;;;;;;;13.13;5.72;;;7.10;99.90;;;;;;4987525;28;20027;-67
2020/12/02 09:51:30;;;;;;;16.05;6.15;;;7.10;99.90;;;;;;4990729;28;20040;-68
2020/12/02 09:53:56;;;;;;;12.35;5.80;;;7.10;99.90;;;;;;4991710;28;20046;-65
2020/12/02 09:56:24;;;;;;;16.38;6.75;;;7.10;99.90;;;;;;4992278;28;20031;-65
2020/12/02 09:58:50;;;;;;;17.50;6.38;;;7.10;99.90;;;;;;4989223;28;20042;-66
2020/12/02 10:01:23;;;;;;;14.68;6.53;;;7.00;99.90;;;;;;4990746;28;20430;-66
2020/12/02 10:04:18;;;;;;;15.88;6.40;;;7.10;99.90;;;;;;4990509;28;20026;-67
2020/12/02 10:07:12;;;;;;;14.82;6.55;;;7.10;99.90;;;;;;4990464;28;20876;-68
2020/12/02 10:10:07;;;;;;;13.95;6.13;;;7.20;99.90;;;;;;4980161;28;20042;-65
2020/12/02 10:12:50;;;;;;;14.07;6.05;;;7.20;99.90;;;;;;4983271;28;20041;-67
2020/12/02 10:15:50;;;;;;;12.23;5.38;;;7.20;99.90;;;;;;4982326;28;20038;-67
2020/12/02 10:18:41;;;;;;;16.33;7.57;;;7.20;99.90;;;;;;4990004;28;20038;-69
2020/12/02 10:21:28;;;;;;;12.50;5.82;;;7.20;99.90;;;;;;4990337;28;20062;-66
2020/12/02 10:24:15;;;;;;;15.65;6.22;;;7.30;99.90;;;;;;4990607;28;20042;-68
2020/12/02 10:27:16;;;;;;;15.65;6.45;;;7.30;99.90;;;;;;4990685;28;20034;-65
2020/12/02 10:30:06;;;;;;;12.88;5.97;;;7.30;99.90;;;;;;4989551;28;20030;-66
2020/12/02 10:32:41;;;;;;;15.60;6.35;;;7.30;99.90;;;;;;4989662;28;20042;-69
2020/12/02 10:35:08;;;;;;;14.43;6.65;;;7.20;99.90;;;;;;4990144;28;20415;-67
2020/12/02 10:37:37;;;;;;;14.73;5.97;;;7.20;99.90;;;;;;4990522;28;20504;-67
2020/12/02 10:40:05;;;;;;;13.73;6.05;;;7.20;99.90;;;;;;4989149;28;20491;-67
2020/12/02 10:43:02;;;;;;;14.43;6.07;;;7.20;99.90;;;;;;4991205;28;20411;-65
2020/12/02 10:45:28;;;;;;;15.18;6.07;;;7.20;99.90;;;;;;4975336;28;20030;-66
2020/12/02 10:48:03;;;;;;;12.82;5.57;;;7.20;99.90;;;;;;4991562;28;20113;-67
2020/12/02 10:50:32;;;;;;;13.73;5.47;;;7.30;99.90;;;;;;4990535;28;20046;-67
2020/12/02 10:53:00;;;;;;;12.63;5.70;;;7.20;99.90;;;;;;4975099;28;20117;-66
2020/12/02 10:55:30;;;;;;;11.38;4.82;;;7.20;99.90;;;;;;4979015;28;20126;-64
2020/12/02 10:58:02;;;;;;;13.60;6.43;;;7.30;99.90;;;;;;4990907;28;20042;-64
2020/12/02 11:00:28;;;;;;;12.98;5.78;;;7.30;99.90;;;;;;4989379;28;20113;-67
2020/12/02 11:03:21;;;;;;;16.42;6.63;;;7.20;99.90;;;;;;4990581;28;20058;-67
2020/12/02 11:06:12;;;;;;;21.08;6.60;;;7.30;99.90;;;;;;4990123;28;20042;-65
2020/12/02 11:09:24;;;;;;;16.52;6.50;;;7.30;99.90;;;;;;4989565;28;20045;-66
2020/12/02 11:12:02;;;;;;;14.60;6.20;;;7.30;99.90;;;;;;4985890;28;20049;-66
2020/12/02 11:15:06;;;;;;;14.55;6.32;;;7.30;99.90;;;;;;4989242;28;20042;-67
2020/12/02 11:17:40;;;;;;;16.50;6.25;;;7.20;99.90;;;;;;4955147;28;20504;-66
2020/12/02 11:20:19;;;;;;;15.75;6.43;;;7.30;99.90;;;;;;4989562;28;20777;-66
2020/12/02 11:22:51;;;;;;;14.27;7.10;;;7.30;99.90;;;;;;4992754;28;20041;-65
2020/12/02 11:25:41;;;;;;;15.43;5.90;;;7.20;99.90;;;;;;4989114;28;20070;-66
2020/12/02 11:28:08;;;;;;;16.35;6.40;;;7.30;99.90;;;;;;4987445;28;20062;-64
2020/12/02 11:30:39;;;;;;;17.55;6.68;;;7.30;99.90;;;;;;4987662;28;20022;-67
2020/12/02 11:33:20;;;;;;;16.05;6.07;;;7.30;99.90;;;;;;4987293;28;20538;-66
2020/12/02 11:36:04;;;;;;;14.57;5.80;;;7.30;99.90;;;;;;4988878;28;20137;-69
2020/12/02 11:38:50;;;;;;;13.95;6.55;;;7.30;99.90;;;;;;4989178;28;20154;-66
2020/12/02 11:41:21;;;;;;;15.60;6.50;;;7.20;99.90;;;;;;4976184;28;20046;-65
2020/12/02 11:43:49;;;;;;;;;;;7.20;99.90;;;;;;4991078;28;20042;-66
2020/12/02 11:46:17;;;;;;;17.52;6.68;;;7.20;99.90;;;;;;4990755;28;20037;-67
2020/12/02 11:49:04;;;;;;;15.32;5.97;;;7.20;99.90;;;;;;4989897;28;20104;-66
2020/12/02 11:52:11;;;;;;;18.10;6.32;;;7.20;99.90;;;;;;4976759;28;20399;-66
2020/12/02 11:54:38;;;;;;;19.75;7.22;;;7.20;99.90;;;;;;4986166;28;20423;-66
2020/12/02 11:57:05;;;;;;;14.35;7.28;;;7.20;99.90;;;;;;4987480;28;20034;-66
2020/12/02 11:59:33;;;;;;;16.98;7.07;;;7.20;99.90;;;;;;4989153;28;20042;-66
2020/12/02 12:02:16;;;;;;;17.88;7.13;;;7.20;99.90;;;;;;4989160;28;20049;-66
2020/12/02 12:04:41;;;;;;;19.73;6.72;;;7.20;99.90;;;;;;4986574;28;20042;-66
2020/12/02 12:07:16;;;;;;;15.50;6.35;;;7.20;99.90;;;;;;4988123;28;20057;-66
2020/12/02 12:10:15;;;;;;;14.02;6.68;;;7.30;99.90;;;;;;4988234;28;20034;-65
2020/12/02 12:13:10;;;;;;;19.00;6.55;;;7.30;99.90;;;;;;4988233;28;20919;-67
2020/12/02 12:15:42;;;;;;;15.23;6.40;;;7.30;99.90;;;;;;4968697;28;20038;-65
2020/12/02 12:18:49;;;;;;;16.63;6.78;;;7.30;99.90;;;;;;4986965;28;20125;-66
2020/12/02 12:21:24;;;;;;;16.10;6.97;;;7.30;99.90;;;;;;4984421;28;20038;-66
2020/12/02 12:24:07;;;;;;;15.27;6.70;;;7.30;99.90;;;;;;4974706;28;20061;-67
2020/12/02 12:26:37;;;;;;;14.80;6.70;;;7.20;99.90;;;;;;4986854;28;20526;-64
2020/12/02 12:29:06;;;;;;;20.63;7.78;;;7.20;99.90;;;;;;4987553;28;20030;-67
2020/12/02 12:31:37;;;;;;;21.27;6.90;;;7.20;99.90;;;;;;4990920;28;20043;-65
2020/12/02 12:34:44;;;;;;;17.38;7.00;;;7.20;99.90;;;;;;4980744;28;20050;-64
2020/12/02 12:37:31;;;;;;;17.45;7.68;;;7.30;99.90;;;;;;4987817;28;20042;-66
2020/12/02 12:40:02;;;;;;;20.98;7.47;;;7.20;99.90;;;;;;4987773;28;20553;-66
2020/12/02 12:42:31;;;;;;;16.63;6.68;;;7.20;99.90;;;;;;4988317;28;20569;-66
2020/12/02 12:45:01;;;;;;;22.15;8.50;;;7.20;99.90;;;;;;4988061;28;20120;-66
2020/12/02 12:47:33;;;;;;;20.30;8.30;;;7.20;99.90;;;;;;4972705;28;20027;-67
2020/12/02 12:50:01;;;;;;;19.50;7.95;;;7.20;99.90;;;;;;4972609;28;20026;-67
2020/12/02 12:52:30;;;;;;;19.60;7.93;;;7.30;99.90;;;;;;4987626;28;20401;-66
2020/12/02 12:54:55;;;;;;;19.55;7.60;;;7.20;99.90;;;;;;4987109;28;20046;-66
2020/12/02 12:57:26;;;;;;;19.38;7.45;;;7.20;99.90;;;;;;4988300;28;20050;-65
2020/12/02 12:59:53;;;;;;;18.02;7.85;;;7.20;99.90;;;;;;4987613;28;20531;-66
2020/12/02 13:02:24;;;;;;;19.02;7.63;;;7.20;99.90;;;;;;4980513;28;20399;-66
2020/12/02 13:04:49;;;;;;;21.15;8.30;;;7.20;99.90;;;;;;4987506;28;20189;-66
2020/12/02 13:07:24;;;;;;;29.08;8.80;;;7.20;99.90;;;;;;4987266;28;20117;-65
2020/12/02 13:10:03;;;;;;;22.10;8.45;;;7.10;99.90;;;;;;4975543;28;20201;-66
2020/12/02 13:12:38;;;;;;;22.40;8.43;;;7.10;99.90;;;;;;4986860;28;20577;-65
2020/12/02 13:15:20;;;;;;;19.25;7.85;;;7.10;99.90;;;;;;4986679;28;20085;-67
2020/12/02 13:17:58;;;;;;;19.25;7.57;;;7.10;99.90;;;;;;4973554;28;20049;-67